Time;durP1;ratioP1;P1;durP2;ratioP2;P2;SDS_P1;SDS_P2;PMS_P1;PMS_P2;Temp;Humidity;BMP_temperature;BMP_pressure;BME280_temperature;BME280_humidity;BME280_pressure;Samples;Min_cycle;Max_cycle;Signal;HPM_P1;HPM_P2
2023/12/06 00:00:30;;;;;;;58.25;50.92;;;12.60;99.90;;;;;;4997935;28;20042;-68
2023/12/06 00:02:56;;;;;;;59.15;52.65;;;12.50;99.90;;;;;;4990034;28;20054;-66
2023/12/06 00:05:21;;;;;;;61.95;53.88;;;12.70;99.90;;;;;;4986332;28;20429;-68
2023/12/06 00:07:47;;;;;;;61.90;55.15;;;12.50;99.90;;;;;;4986105;28;20150;-68
2023/12/06 00:10:13;;;;;;;63.92;54.38;;;12.70;99.90;;;;;;4986278;28;20465;-68
2023/12/06 00:12:38;;;;;;;62.13;55.45;;;12.60;99.90;;;;;;4995184;28;20033;-68
2023/12/06 00:15:04;;;;;;;63.00;56.08;;;12.00;99.90;;;;;;5009546;28;20042;-68
2023/12/06 00:17:30;;;;;;;57.92;51.72;;;12.20;99.90;;;;;;4995937;28;20440;-68
2023/12/06 00:19:55;;;;;;;62.65;55.90;;;12.20;99.90;;;;;;4988741;28;20054;-68
2023/12/06 00:22:21;;;;;;;59.78;52.63;;;12.20;99.90;;;;;;4994085;28;20050;-68
2023/12/06 00:24:47;;;;;;;61.90;55.15;;;12.80;99.90;;;;;;4990341;28;20054;-67
2023/12/06 00:27:12;;;;;;;61.75;51.92;;;12.90;99.90;;;;;;4988020;28;20108;-67
2023/12/06 00:29:38;;;;;;;58.33;52.13;;;12.80;99.90;;;;;;4990318;28;20042;-67
2023/12/06 00:32:04;;;;;;;58.33;51.83;;;13.00;99.90;;;;;;4990350;28;20467;-67
2023/12/06 00:34:29;;;;;;;60.88;49.70;;;12.30;99.90;;;;;;4990152;28;20046;-67
2023/12/06 00:36:55;;;;;;;55.35;49.17;;;12.10;99.90;;;;;;4989901;28;20050;-67
2023/12/06 00:39:20;;;;;;;56.13;49.00;;;12.30;99.90;;;;;;4990393;28;20046;-66
2023/12/06 00:41:46;;;;;;;52.42;46.78;;;12.70;99.90;;;;;;4990537;28;20038;-67
2023/12/06 00:44:11;;;;;;;52.25;46.83;;;12.20;99.90;;;;;;4990149;28;20504;-67
2023/12/06 00:46:37;;;;;;;52.50;47.25;;;12.50;99.90;;;;;;4989489;28;20038;-67
2023/12/06 00:49:03;;;;;;;49.70;44.40;;;13.00;99.90;;;;;;4990105;28;20404;-67
2023/12/06 00:51:29;;;;;;;49.75;44.90;;;13.50;99.90;;;;;;4990002;28;20046;-67
2023/12/06 00:53:54;;;;;;;48.22;43.63;;;13.20;99.90;;;;;;5004595;28;20050;-67
2023/12/06 00:56:20;;;;;;;49.47;44.53;;;13.40;99.90;;;;;;4989149;28;20038;-66
2023/12/06 00:58:46;;;;;;;48.95;43.83;;;12.50;99.90;;;;;;4988465;28;20129;-67
2023/12/06 01:01:12;;;;;;;51.67;46.33;;;12.50;99.90;;;;;;4989351;28;20058;-66
2023/12/06 01:03:41;;;;;;;54.58;48.83;;;12.40;99.90;;;;;;4989813;28;20045;-67
2023/12/06 01:06:08;;;;;;;49.38;44.38;;;13.20;99.90;;;;;;4989429;28;20069;-67
2023/12/06 01:08:34;;;;;;;53.53;48.30;;;12.50;99.90;;;;;;4989135;28;20108;-67
2023/12/06 01:10:59;;;;;;;51.00;45.72;;;12.40;99.90;;;;;;4989260;28;20039;-67
2023/12/06 01:13:25;;;;;;;53.42;47.58;;;13.20;99.90;;;;;;4997654;28;20065;-67
2023/12/06 01:15:50;;;;;;;54.65;49.13;;;12.40;99.90;;;;;;4997988;28;20054;-67
2023/12/06 01:18:16;;;;;;;51.72;46.63;;;13.20;99.90;;;;;;4991157;28;20144;-67
2023/12/06 01:20:42;;;;;;;49.83;44.72;;;12.60;99.90;;;;;;4989218;28;20046;-67
2023/12/06 01:23:07;;;;;;;49.70;44.53;;;13.00;99.90;;;;;;4975014;28;20453;-67
2023/12/06 01:25:33;;;;;;;52.40;46.95;;;12.80;99.90;;;;;;5005054;28;20419;-67
2023/12/06 01:27:59;;;;;;;51.60;46.25;;;13.30;99.90;;;;;;4988984;28;20105;-67
2023/12/06 01:30:25;;;;;;;53.65;48.45;;;13.10;99.90;;;;;;4989412;28;20052;-67
2023/12/06 01:32:50;;;;;;;51.55;46.40;;;13.30;99.90;;;;;;4998097;28;20050;-67
2023/12/06 01:35:16;;;;;;;54.70;49.17;;;13.40;99.90;;;;;;5008185;28;20045;-67
2023/12/06 01:37:42;;;;;;;58.58;51.10;;;13.30;99.90;;;;;;4996741;28;20697;-67
2023/12/06 01:40:08;;;;;;;53.28;46.80;;;13.10;99.90;;;;;;4988647;28;20038;-67
2023/12/06 01:42:34;;;;;;;55.17;47.38;;;13.20;99.90;;;;;;4998118;28;20050;-67
2023/12/06 01:45:00;;;;;;;51.38;45.88;;;13.30;99.90;;;;;;4996734;28;20152;-67
2023/12/06 01:47:29;;;;;;;56.13;50.40;;;13.20;99.90;;;;;;4988961;28;20098;-67
2023/12/06 01:49:56;;;;;;;53.88;48.38;;;13.30;99.90;;;;;;4988720;28;20116;-67
2023/12/06 01:52:23;;;;;;;54.47;48.67;;;12.40;99.90;;;;;;4988797;28;20163;-67
2023/12/06 01:54:49;;;;;;;51.78;46.65;;;12.40;99.90;;;;;;5006200;28;20145;-66
2023/12/06 01:57:15;;;;;;;49.60;44.28;;;13.20;99.90;;;;;;5002788;28;20554;-67
2023/12/06 01:59:42;;;;;;;52.55;44.55;;;13.20;99.90;;;;;;4988697;28;20051;-67
2023/12/06 02:02:09;;;;;;;51.10;45.90;;;13.20;99.90;;;;;;4988597;28;20583;-67
2023/12/06 02:04:36;;;;;;;51.75;46.80;;;13.00;99.90;;;;;;4987120;28;20058;-67
2023/12/06 02:07:01;;;;;;;52.70;47.25;;;12.70;99.90;;;;;;4988316;28;20135;-66
2023/12/06 02:09:28;;;;;;;51.85;46.13;;;13.20;99.90;;;;;;4988222;28;20062;-67
2023/12/06 02:11:53;;;;;;;56.65;51.03;;;13.40;99.90;;;;;;4986994;28;20100;-67
2023/12/06 02:14:20;;;;;;;54.08;48.55;;;13.20;99.90;;;;;;4988194;28;20050;-67
2023/12/06 02:16:46;;;;;;;57.08;51.08;;;12.80;99.90;;;;;;4988032;28;20054;-67
2023/12/06 02:19:17;;;;;;;55.95;49.72;;;12.50;99.90;;;;;;4989418;28;20050;-67
2023/12/06 02:21:43;;;;;;;53.10;47.60;;;12.60;99.90;;;;;;4989238;28;20412;-67
2023/12/06 02:24:10;;;;;;;55.10;49.22;;;12.70;99.90;;;;;;4986931;28;20049;-66
2023/12/06 02:26:36;;;;;;;56.67;48.17;;;13.50;99.90;;;;;;4986110;28;20538;-67
2023/12/06 02:29:01;;;;;;;54.92;49.38;;;13.60;99.90;;;;;;4968631;28;20043;-67
2023/12/06 02:31:28;;;;;;;56.05;49.72;;;13.60;99.90;;;;;;4984529;28;20042;-66
2023/12/06 02:33:54;;;;;;;56.53;49.75;;;13.60;99.90;;;;;;4997279;28;20046;-67
2023/12/06 02:36:21;;;;;;;65.68;49.63;;;12.60;99.90;;;;;;4999736;28;20105;-67
2023/12/06 02:38:47;;;;;;;57.63;51.90;;;13.40;99.90;;;;;;4988276;28;20042;-67
2023/12/06 02:41:16;;;;;;;55.85;49.85;;;13.60;99.90;;;;;;4988923;28;20057;-66
2023/12/06 02:43:43;;;;;;;57.15;51.22;;;12.70;99.90;;;;;;4994926;28;20453;-63
2023/12/06 02:46:08;;;;;;;53.15;47.22;;;13.70;99.90;;;;;;4987904;28;20074;-64
2023/12/06 02:48:34;;;;;;;56.15;50.05;;;13.30;99.90;;;;;;4986669;28;20125;-63
2023/12/06 02:50:59;;;;;;;54.55;48.88;;;13.10;99.90;;;;;;4987260;28;20046;-62
2023/12/06 02:53:25;;;;;;;62.80;49.67;;;12.80;99.90;;;;;;4987121;28;20523;-63
2023/12/06 02:55:50;;;;;;;57.10;51.58;;;13.70;99.90;;;;;;4987802;28;20390;-63
2023/12/06 02:58:16;;;;;;;55.13;49.72;;;13.70;99.90;;;;;;5003018;28;20038;-63
2023/12/06 03:00:42;;;;;;;58.78;52.40;;;13.60;99.90;;;;;;4999193;28;20113;-63
2023/12/06 03:03:07;;;;;;;57.13;51.25;;;13.20;99.90;;;;;;4987162;28;20047;-63
2023/12/06 03:05:33;;;;;;;54.90;49.25;;;12.90;99.90;;;;;;4987135;28;20038;-63
2023/12/06 03:07:58;;;;;;;56.03;50.33;;;13.10;99.90;;;;;;4987251;28;20081;-64
2023/12/06 03:10:24;;;;;;;54.33;48.33;;;13.10;99.90;;;;;;4987539;28;20038;-64
2023/12/06 03:12:49;;;;;;;57.40;51.35;;;13.10;99.90;;;;;;5002593;28;20042;-63
2023/12/06 03:15:15;;;;;;;57.55;51.40;;;13.80;99.90;;;;;;4991899;28;20042;-63
2023/12/06 03:17:40;;;;;;;55.53;49.70;;;13.10;99.90;;;;;;4986795;28;20042;-63
2023/12/06 03:20:07;;;;;;;59.10;52.72;;;13.60;99.90;;;;;;4987192;28;20104;-63
2023/12/06 03:22:32;;;;;;;59.65;54.03;;;13.10;99.90;;;;;;4987156;28;20445;-62
2023/12/06 03:24:58;;;;;;;59.08;53.30;;;13.80;99.90;;;;;;4986527;28;20054;-64
2023/12/06 03:27:24;;;;;;;56.75;50.88;;;13.90;99.90;;;;;;4987025;28;20083;-64
2023/12/06 03:29:49;;;;;;;54.88;48.85;;;13.70;99.90;;;;;;4987455;28;20092;-63
2023/12/06 03:32:15;;;;;;;56.20;50.28;;;14.40;99.90;;;;;;4987039;28;20073;-63
2023/12/06 03:34:40;;;;;;;53.33;47.55;;;13.90;99.90;;;;;;4986779;28;20042;-62
2023/12/06 03:37:06;;;;;;;55.75;49.80;;;13.10;99.90;;;;;;4986160;28;20121;-63
2023/12/06 03:39:32;;;;;;;57.15;50.03;;;14.00;99.90;;;;;;4986478;28;20540;-61
2023/12/06 03:41:59;;;;;;;59.50;53.38;;;13.20;99.90;;;;;;4986342;28;20492;-63
2023/12/06 03:44:25;;;;;;;59.42;53.13;;;14.00;99.90;;;;;;4986522;28;20042;-63
2023/12/06 03:46:50;;;;;;;55.13;49.20;;;13.20;99.90;;;;;;4986446;28;20053;-65
2023/12/06 03:49:16;;;;;;;58.95;53.08;;;14.00;99.90;;;;;;4986878;28;20070;-63
2023/12/06 03:51:42;;;;;;;54.55;48.63;;;14.00;99.90;;;;;;4986558;28;20045;-64
2023/12/06 03:54:07;;;;;;;51.17;45.83;;;14.80;99.90;;;;;;5001671;28;20121;-63
2023/12/06 03:56:33;;;;;;;50.92;45.55;;;13.30;99.90;;;;;;4986409;28;20140;-63
2023/12/06 03:58:58;;;;;;;51.15;45.85;;;13.30;99.90;;;;;;4986593;28;20412;-63
2023/12/06 04:01:24;;;;;;;50.83;45.85;;;13.70;99.90;;;;;;4984486;28;20143;-63
2023/12/06 04:03:49;;;;;;;47.78;43.00;;;13.50;99.90;;;;;;4986357;28;20057;-63
2023/12/06 04:06:15;;;;;;;51.35;46.20;;;13.40;99.90;;;;;;4986456;28;20054;-64
2023/12/06 04:08:41;;;;;;;46.25;42.03;;;14.00;1.00;;;;;;4986402;28;20049;-62
2023/12/06 04:11:06;;;;;;;47.35;43.05;;;13.40;99.90;;;;;;4972133;28;20105;-63
2023/12/06 04:13:32;;;;;;;42.65;38.88;;;14.10;99.90;;;;;;4980972;28;20053;-63
2023/12/06 04:15:57;;;;;;;46.67;42.17;;;14.10;1.00;;;;;;4986330;28;20042;-64
2023/12/06 04:18:23;;;;;;;46.92;42.65;;;13.60;99.90;;;;;;4986483;28;20129;-64
2023/12/06 04:20:48;;;;;;;46.90;42.63;;;13.60;1.00;;;;;;4983952;28;20533;-65
2023/12/06 04:23:14;;;;;;;40.47;36.65;;;14.20;99.90;;;;;;4985503;28;20050;-63
2023/12/06 04:25:39;;;;;;;45.20;40.72;;;13.80;99.90;;;;;;4984760;28;20065;-63
2023/12/06 04:28:05;;;;;;;39.67;36.28;;;14.20;1.00;;;;;;4997793;28;20188;-62
2023/12/06 04:30:31;;;;;;;38.80;35.15;;;14.20;99.90;;;;;;4991256;28;20213;-62
2023/12/06 04:32:56;;;;;;;40.50;36.65;;;14.20;1.00;;;;;;4986422;28;20043;-64
2023/12/06 04:35:22;;;;;;;41.33;37.08;;;14.20;99.90;;;;;;4985933;28;20147;-63
2023/12/06 04:37:47;;;;;;;40.47;36.38;;;13.80;93.70;;;;;;4985883;28;20420;-62
2023/12/06 04:40:13;;;;;;;34.92;31.77;;;14.20;1.00;;;;;;4987909;28;20046;-63
2023/12/06 04:42:39;;;;;;;39.78;35.97;;;14.20;99.90;;;;;;4995259;28;20050;-63
2023/12/06 04:45:04;;;;;;;38.10;34.60;;;14.20;99.90;;;;;;4986038;28;20211;-63
2023/12/06 04:47:30;;;;;;;40.40;36.63;;;13.90;4.30;;;;;;4984615;28;20050;-62
2023/12/06 04:49:56;;;;;;;44.28;40.05;;;13.70;1.00;;;;;;4982366;28;20039;-63
2023/12/06 04:52:22;;;;;;;41.38;37.70;;;14.60;99.90;;;;;;4965299;28;20094;-63
2023/12/06 04:54:48;;;;;;;43.15;39.00;;;14.20;99.90;;;;;;4999244;28;20058;-63
2023/12/06 04:57:14;;;;;;;42.50;38.42;;;14.20;99.90;;;;;;4985856;28;20401;-63
2023/12/06 04:59:39;;;;;;;41.58;37.67;;;13.90;99.90;;;;;;4987313;28;20405;-63
2023/12/06 05:02:05;;;;;;;39.83;35.47;;;13.60;43.10;;;;;;4989249;28;20065;-63
2023/12/06 05:04:31;;;;;;;39.92;35.90;;;14.00;1.00;;;;;;4989622;28;20038;-62
2023/12/06 05:06:56;;;;;;;39.55;35.75;;;14.10;1.00;;;;;;4989114;28;20050;-65
2023/12/06 05:09:22;;;;;;;41.08;36.92;;;13.70;1.00;;;;;;4989096;28;20037;-62
2023/12/06 05:11:47;;;;;;;41.03;37.15;;;14.00;1.00;;;;;;5005340;28;20037;-64
2023/12/06 05:14:13;;;;;;;41.35;37.28;;;14.20;99.90;;;;;;5004547;28;20132;-64
2023/12/06 05:16:39;;;;;;;40.58;36.90;;;14.10;99.90;;;;;;5013113;28;20046;-63
2023/12/06 05:19:06;;;;;;;38.83;34.72;;;14.10;99.90;;;;;;4989031;28;20050;-64
2023/12/06 05:21:31;;;;;;;38.97;35.30;;;14.10;99.90;;;;;;5004326;28;20050;-63
2023/12/06 05:23:57;;;;;;;37.30;33.38;;;14.10;99.90;;;;;;4988777;28;20045;-63
2023/12/06 05:26:25;;;;;;;38.58;34.80;;;14.10;99.90;;;;;;4988454;28;20662;-67
2023/12/06 05:28:52;;;;;;;40.00;36.42;;;14.00;99.00;;;;;;4988684;28;20049;-64
2023/12/06 05:31:17;;;;;;;37.28;33.47;;;14.10;27.50;;;;;;4989316;28;20046;-62
2023/12/06 05:33:43;;;;;;;38.78;34.95;;;13.90;1.00;;;;;;5004448;28;20572;-63
2023/12/06 05:36:08;;;;;;;37.60;34.15;;;13.80;1.00;;;;;;4988908;28;20117;-64
2023/12/06 05:38:34;;;;;;;41.85;38.08;;;13.70;1.00;;;;;;5003422;28;20057;-63
2023/12/06 05:41:00;;;;;;;42.60;38.33;;;14.20;1.00;;;;;;4989176;28;20104;-64
2023/12/06 05:43:26;;;;;;;41.55;36.97;;;14.10;1.00;;;;;;4996966;28;20443;-63
2023/12/06 05:45:51;;;;;;;40.50;36.60;;;13.80;1.00;;;;;;5001849;28;20042;-63
2023/12/06 05:48:17;;;;;;;41.03;37.10;;;13.80;1.00;;;;;;4988721;28;20085;-62
2023/12/06 05:50:42;;;;;;;41.95;38.03;;;14.00;1.00;;;;;;4990291;28;20596;-65
2023/12/06 05:53:08;;;;;;;39.65;35.83;;;13.90;1.00;;;;;;4988322;28;20049;-63
2023/12/06 05:55:33;;;;;;;40.00;35.90;;;13.80;1.00;;;;;;4988396;28;20045;-63
2023/12/06 05:57:59;;;;;;;42.97;39.00;;;14.20;1.00;;;;;;4988649;28;20487;-62
2023/12/06 06:00:25;;;;;;;39.40;35.25;;;14.00;1.00;;;;;;4987569;28;20497;-64
2023/12/06 06:02:52;;;;;;;41.30;37.33;;;13.90;1.00;;;;;;4988303;28;20121;-64
2023/12/06 06:05:18;;;;;;;40.45;36.38;;;14.00;1.00;;;;;;4988324;28;20053;-64
2023/12/06 06:07:44;;;;;;;41.38;37.13;;;14.00;1.00;;;;;;4988529;28;20042;-64
2023/12/06 06:10:09;;;;;;;42.42;38.30;;;13.80;1.00;;;;;;4987804;28;20038;-65
2023/12/06 06:12:35;;;;;;;42.28;37.85;;;14.20;1.00;;;;;;4986353;28;20069;-63
2023/12/06 06:15:01;;;;;;;41.67;37.25;;;13.90;1.00;;;;;;4984678;28;20046;-69
2023/12/06 06:17:27;;;;;;;45.25;39.75;;;13.80;1.00;;;;;;4986903;28;20759;-68
2023/12/06 06:19:52;;;;;;;41.05;36.33;;;13.70;99.90;;;;;;4987433;28;20038;-68
2023/12/06 06:22:18;;;;;;;45.13;40.45;;;14.20;99.90;;;;;;4984721;28;20633;-68
2023/12/06 06:24:43;;;;;;;42.60;38.10;;;14.20;1.00;;;;;;4988148;28;20146;-68
2023/12/06 06:27:09;;;;;;;40.17;36.25;;;14.10;1.00;;;;;;4985878;28;20404;-68
2023/12/06 06:29:34;;;;;;;47.90;39.28;;;13.70;1.00;;;;;;4984882;28;20493;-68
2023/12/06 06:32:00;;;;;;;44.40;39.90;;;13.80;1.00;;;;;;4980185;28;20389;-68
2023/12/06 06:34:26;;;;;;;43.72;39.03;;;14.10;1.00;;;;;;4975617;28;20034;-69
2023/12/06 06:36:51;;;;;;;44.55;40.15;;;13.70;99.90;;;;;;4987336;28;20046;-68
2023/12/06 06:39:17;;;;;;;42.92;38.92;;;13.90;99.90;;;;;;4986154;28;20043;-69
2023/12/06 06:41:42;;;;;;;42.47;38.47;;;13.80;99.90;;;;;;4980793;28;20130;-68
2023/12/06 06:44:08;;;;;;;42.60;37.88;;;13.70;99.90;;;;;;4981722;28;20337;-69
2023/12/06 06:46:33;;;;;;;41.65;37.30;;;13.60;99.90;;;;;;4970504;28;20444;-68
2023/12/06 06:48:59;;;;;;;47.10;39.65;;;13.70;99.90;;;;;;4974852;28;20038;-68
2023/12/06 06:51:35;;;;;;;43.55;39.15;;;14.20;99.90;;;;;;4984107;28;20053;-68
2023/12/06 06:54:01;;;;;;;47.72;41.70;;;13.60;99.90;;;;;;4982700;28;20122;-68
2023/12/06 06:56:27;;;;;;;51.38;46.25;;;13.90;99.90;;;;;;4986250;28;20057;-68
2023/12/06 06:58:52;;;;;;;51.03;45.88;;;13.60;99.90;;;;;;4985393;28;20513;-67
2023/12/06 07:01:18;;;;;;;52.58;47.13;;;13.60;99.90;;;;;;4985131;28;20058;-68
2023/12/06 07:03:44;;;;;;;48.70;43.80;;;13.80;99.90;;;;;;4983023;28;20042;-69
2023/12/06 07:06:09;;;;;;;54.05;45.85;;;13.70;99.90;;;;;;4984038;28;20066;-67
2023/12/06 07:08:35;;;;;;;47.88;42.88;;;13.60;99.90;;;;;;4985809;28;20225;-66
2023/12/06 07:11:02;;;;;;;46.35;41.80;;;13.80;99.90;;;;;;4979567;28;20050;-66
2023/12/06 07:13:27;;;;;;;46.53;41.67;;;13.70;99.90;;;;;;4977646;28;20483;-67
2023/12/06 07:15:53;;;;;;;43.90;39.50;;;14.10;99.90;;;;;;4999348;28;20066;-66
2023/12/06 07:18:19;;;;;;;48.90;43.58;;;14.10;99.90;;;;;;4984128;28;20213;-65
2023/12/06 07:20:44;;;;;;;49.50;44.42;;;14.00;99.90;;;;;;4981661;28;20042;-65
2023/12/06 07:23:10;;;;;;;52.90;46.22;;;13.80;1.00;;;;;;4980873;28;20149;-66
2023/12/06 07:25:35;;;;;;;46.97;42.38;;;13.90;1.00;;;;;;4985154;28;20089;-62
2023/12/06 07:28:02;;;;;;;47.20;42.60;;;14.20;1.00;;;;;;4984927;28;20119;-63
2023/12/06 07:30:28;;;;;;;44.85;40.70;;;14.20;1.00;;;;;;4985281;28;20049;-62
2023/12/06 07:32:53;;;;;;;41.33;37.42;;;13.70;1.00;;;;;;4984154;28;20034;-62
2023/12/06 07:35:19;;;;;;;40.38;36.05;;;14.10;1.00;;;;;;4983335;28;20030;-62
2023/12/06 07:37:45;;;;;;;36.55;33.30;;;14.10;1.00;;;;;;4982288;28;20127;-62
2023/12/06 07:40:11;;;;;;;38.15;33.97;;;14.10;99.90;;;;;;4985230;28;20037;-64
2023/12/06 07:42:37;;;;;;;40.58;37.15;;;14.20;99.90;;;;;;4980758;28;20038;-63
2023/12/06 07:45:03;;;;;;;42.03;37.60;;;14.20;99.90;;;;;;4998065;28;20514;-65
2023/12/06 07:47:29;;;;;;;44.17;36.78;;;14.20;99.90;;;;;;4982787;28;20039;-65
2023/12/06 07:49:54;;;;;;;42.92;38.90;;;14.10;99.90;;;;;;4978855;28;20424;-63
2023/12/06 07:52:20;;;;;;;38.53;34.65;;;14.00;99.90;;;;;;4983160;28;20449;-64
2023/12/06 07:54:46;;;;;;;39.22;35.60;;;14.20;99.90;;;;;;4983190;28;20046;-64
2023/12/06 07:57:13;;;;;;;35.35;31.88;;;14.30;99.90;;;;;;4983159;28;20069;-64
2023/12/06 07:59:38;;;;;;;35.50;32.15;;;14.40;99.90;;;;;;4982987;28;20050;-64
2023/12/06 08:02:04;;;;;;;32.17;29.27;;;14.00;99.90;;;;;;4985435;28;20996;-64
2023/12/06 08:04:30;;;;;;;32.72;29.60;;;13.90;99.90;;;;;;4984864;28;20118;-64
2023/12/06 08:06:55;;;;;;;33.78;30.23;;;13.90;99.90;;;;;;4985365;28;20073;-64
2023/12/06 08:09:21;;;;;;;32.78;29.88;;;13.80;99.90;;;;;;4982233;28;20088;-64
2023/12/06 08:11:46;;;;;;;35.72;32.38;;;13.90;99.90;;;;;;4984231;28;20038;-64
2023/12/06 08:14:14;;;;;;;37.08;33.58;;;13.70;99.90;;;;;;4985783;28;20074;-65
2023/12/06 08:16:39;;;;;;;38.50;34.72;;;14.10;99.90;;;;;;4976796;28;20077;-64
2023/12/06 08:19:05;;;;;;;39.42;35.65;;;13.60;99.90;;;;;;4980195;28;20129;-64
2023/12/06 08:21:30;;;;;;;39.63;35.72;;;14.00;1.00;;;;;;4982370;28;20049;-65
2023/12/06 08:23:56;;;;;;;39.38;35.53;;;13.80;1.00;;;;;;4983641;28;20034;-65
2023/12/06 08:26:21;;;;;;;42.58;38.40;;;13.60;1.00;;;;;;4983656;28;20047;-64
2023/12/06 08:28:47;;;;;;;38.15;34.70;;;13.80;1.00;;;;;;4982185;28;20041;-64
2023/12/06 08:31:13;;;;;;;39.70;35.72;;;13.50;1.00;;;;;;4975417;28;20042;-63
2023/12/06 08:33:38;;;;;;;39.28;35.30;;;13.80;1.00;;;;;;4983827;28;20038;-63
2023/12/06 08:36:04;;;;;;;39.80;36.08;;;13.70;1.00;;;;;;4987238;28;20038;-65
2023/12/06 08:38:30;;;;;;;39.70;36.00;;;14.00;1.00;;;;;;4987295;28;20097;-63
2023/12/06 08:40:55;;;;;;;42.80;36.45;;;13.90;1.00;;;;;;4985500;28;20049;-63
2023/12/06 08:43:21;;;;;;;42.78;38.80;;;14.10;1.00;;;;;;4989431;28;20046;-64
2023/12/06 08:45:46;;;;;;;44.42;40.28;;;14.10;13.90;;;;;;4987431;28;20065;-65
2023/12/06 08:48:12;;;;;;;40.33;36.10;;;14.00;49.60;;;;;;4987471;28;20400;-62
2023/12/06 08:50:38;;;;;;;41.33;37.30;;;14.70;72.10;;;;;;4986010;28;20076;-64
2023/12/06 08:53:04;;;;;;;42.75;38.60;;;13.70;99.90;;;;;;4985981;28;20104;-64
2023/12/06 08:55:29;;;;;;;38.63;34.83;;;13.90;99.90;;;;;;4985181;28;20046;-64
2023/12/06 08:57:55;;;;;;;41.28;37.38;;;13.60;99.90;;;;;;4984272;28;20126;-62
2023/12/06 09:00:20;;;;;;;44.38;39.80;;;13.80;99.90;;;;;;4985303;28;20042;-65
2023/12/06 09:02:46;;;;;;;40.28;36.38;;;14.00;99.90;;;;;;4988935;28;20057;-63
2023/12/06 09:05:11;;;;;;;42.78;38.67;;;13.90;99.90;;;;;;4987475;28;20096;-64
2023/12/06 09:07:38;;;;;;;43.00;38.83;;;14.10;99.90;;;;;;4987053;28;20140;-62
2023/12/06 09:10:04;;;;;;;39.50;35.58;;;14.10;99.90;;;;;;5000565;28;20057;-63
2023/12/06 09:12:31;;;;;;;42.58;38.50;;;13.70;99.90;;;;;;4983583;28;20046;-62
2023/12/06 09:14:56;;;;;;;43.40;39.20;;;14.00;99.90;;;;;;4986466;28;20755;-63
2023/12/06 09:17:22;;;;;;;40.97;36.95;;;13.70;1.00;;;;;;4986346;28;20137;-63
2023/12/06 09:19:48;;;;;;;44.70;40.10;;;14.00;99.90;;;;;;4985599;28;20046;-63
2023/12/06 09:22:15;;;;;;;45.20;40.80;;;14.00;1.00;;;;;;4987596;28;20073;-63
2023/12/06 09:24:42;;;;;;;43.28;38.83;;;14.20;1.00;;;;;;4986553;28;20180;-63
2023/12/06 09:27:08;;;;;;;44.67;40.38;;;13.70;1.00;;;;;;4986065;28;20057;-62
2023/12/06 09:29:33;;;;;;;40.05;36.33;;;13.70;1.00;;;;;;4985351;28;20038;-62
2023/12/06 09:31:59;;;;;;;41.33;37.30;;;14.30;1.00;;;;;;4987589;28;20063;-62
2023/12/06 09:34:24;;;;;;;42.53;38.40;;;13.70;1.00;;;;;;4982960;28;20576;-63
2023/12/06 09:36:50;;;;;;;37.72;34.38;;;14.30;99.90;;;;;;4986464;28;20078;-64
2023/12/06 09:39:20;;;;;;;41.13;37.20;;;13.80;99.90;;;;;;4984853;28;20061;-64
2023/12/06 09:41:46;;;;;;;42.00;38.17;;;14.40;99.90;;;;;;4986916;28;20042;-63
2023/12/06 09:44:11;;;;;;;42.80;38.40;;;14.30;99.90;;;;;;4985595;28;20042;-64
2023/12/06 09:46:37;;;;;;;44.42;40.15;;;13.80;99.90;;;;;;4986857;28;20046;-63
2023/12/06 09:49:03;;;;;;;45.28;40.78;;;13.90;99.90;;;;;;4983360;28;20489;-62
2023/12/06 09:51:28;;;;;;;41.83;37.72;;;14.20;99.90;;;;;;4986372;28;20123;-64
2023/12/06 09:53:55;;;;;;;40.75;37.00;;;14.00;1.00;;;;;;4986323;28;20515;-62
2023/12/06 09:56:21;;;;;;;42.42;38.03;;;14.40;1.00;;;;;;4984999;28;20030;-62
2023/12/06 09:58:46;;;;;;;42.90;38.83;;;14.20;1.00;;;;;;4982474;28;20075;-63
2023/12/06 10:01:12;;;;;;;42.55;38.75;;;14.20;1.00;;;;;;4986777;28;20050;-63
2023/12/06 10:03:38;;;;;;;41.67;37.83;;;14.10;1.00;;;;;;4982472;28;20123;-64
2023/12/06 10:06:04;;;;;;;44.33;39.65;;;14.00;1.00;;;;;;4981121;28;20038;-63
2023/12/06 10:08:33;;;;;;;43.55;39.38;;;14.00;1.00;;;;;;4981393;28;20503;-64
2023/12/06 10:11:09;;;;;;;43.08;39.08;;;14.30;1.00;;;;;;4982574;28;20046;-65
2023/12/06 10:13:41;;;;;;;43.08;38.88;;;14.30;1.00;;;;;;4983896;28;20137;-63
2023/12/06 10:16:19;;;;;;;38.58;34.85;;;13.80;1.00;;;;;;4983880;28;20034;-65
2023/12/06 10:18:49;;;;;;;44.17;40.08;;;14.10;1.00;;;;;;4983319;28;20042;-64
2023/12/06 10:21:17;;;;;;;43.13;38.72;;;14.30;1.00;;;;;;4984449;28;20108;-63
2023/12/06 10:23:51;;;;;;;42.67;38.45;;;14.10;1.80;;;;;;4986451;28;20041;-64
2023/12/06 10:26:17;;;;;;;43.70;39.60;;;14.00;1.00;;;;;;4985508;28;20045;-64
2023/12/06 10:28:45;;;;;;;44.00;39.53;;;14.40;1.00;;;;;;4980569;28;20038;-65
2023/12/06 10:31:10;;;;;;;44.85;40.72;;;13.70;20.00;;;;;;4983120;28;20035;-63
2023/12/06 10:33:38;;;;;;;43.65;39.25;;;13.80;19.90;;;;;;4985719;28;20091;-66
2023/12/06 10:36:07;;;;;;;44.25;39.97;;;14.30;40.80;;;;;;4983394;28;20038;-66
2023/12/06 10:38:34;;;;;;;45.55;41.15;;;15.80;68.70;;;;;;4981113;28;20053;-66
2023/12/06 10:41:02;;;;;;;45.35;40.85;;;13.80;99.90;;;;;;4984654;28;20082;-66
2023/12/06 10:43:28;;;;;;;46.25;41.70;;;14.40;70.90;;;;;;4985631;28;20408;-66
2023/12/06 10:45:55;;;;;;;46.17;41.75;;;14.40;52.70;;;;;;4983854;28;20125;-66
2023/12/06 10:48:22;;;;;;;45.05;40.53;;;13.80;56.70;;;;;;4983401;28;20082;-66
2023/12/06 10:50:49;;;;;;;44.10;39.83;;;14.30;44.70;;;;;;4985243;28;20030;-65
2023/12/06 10:53:17;;;;;;;45.47;40.95;;;14.00;60.40;;;;;;5000802;28;20050;-65
2023/12/06 10:55:44;;;;;;;44.92;40.35;;;14.30;97.90;;;;;;4984564;28;20476;-65
2023/12/06 10:58:09;;;;;;;51.38;46.42;;;13.90;99.90;;;;;;4984659;28;20112;-65
2023/12/06 11:00:35;;;;;;;49.88;45.15;;;14.50;99.90;;;;;;4998222;28;20058;-65
2023/12/06 11:03:02;;;;;;;55.78;46.53;;;14.40;99.90;;;;;;4984499;28;20660;-66
2023/12/06 11:05:37;;;;;;;49.67;44.78;;;13.80;99.90;;;;;;4984853;28;20117;-66
2023/12/06 11:08:31;;;;;;;51.78;46.88;;;14.40;99.90;;;;;;4984860;28;20409;-66
2023/12/06 11:11:23;;;;;;;50.45;45.72;;;14.00;1.00;;;;;;4982310;28;21570;-66
2023/12/06 11:14:04;;;;;;;48.22;43.58;;;13.80;1.00;;;;;;4981732;28;20058;-65
2023/12/06 11:16:42;;;;;;;49.25;43.83;;;13.90;1.00;;;;;;4982197;28;20038;-66
2023/12/06 11:19:10;;;;;;;49.35;44.55;;;14.50;12.80;;;;;;4982048;28;20043;-66
2023/12/06 11:21:37;;;;;;;49.38;44.13;;;14.70;73.10;;;;;;4984216;28;20124;-66
2023/12/06 11:24:03;;;;;;;51.00;45.67;;;14.60;99.90;;;;;;4979269;28;20038;-66
2023/12/06 11:26:29;;;;;;;54.55;48.78;;;14.40;99.90;;;;;;4981669;28;20049;-66
2023/12/06 11:28:56;;;;;;;49.22;44.38;;;14.70;99.90;;;;;;4979743;28;20453;-66
2023/12/06 11:31:21;;;;;;;44.88;40.58;;;14.20;99.90;;;;;;4982402;28;20063;-66
2023/12/06 11:33:58;;;;;;;49.00;43.75;;;14.80;99.90;;;;;;4980522;28;20378;-66
2023/12/06 11:36:24;;;;;;;50.60;45.58;;;14.10;99.90;;;;;;4982994;28;20489;-66
2023/12/06 11:38:51;;;;;;;51.63;46.67;;;14.30;99.90;;;;;;4977313;28;20037;-66
2023/12/06 11:41:16;;;;;;;47.38;42.75;;;14.10;1.00;;;;;;4982254;28;20713;-65
2023/12/06 11:43:52;;;;;;;54.60;45.28;;;14.20;99.90;;;;;;4980752;28;20033;-65
2023/12/06 11:46:20;;;;;;;48.80;44.00;;;14.80;99.90;;;;;;4982526;28;20117;-62
2023/12/06 11:48:48;;;;;;;42.38;37.92;;;14.90;99.90;;;;;;4981059;28;20065;-63
2023/12/06 11:51:34;;;;;;;45.75;41.42;;;14.60;99.90;;;;;;4981587;28;20042;-63
2023/12/06 11:53:59;;;;;;;45.87;41.77;;;14.80;51.40;;;;;;4984384;28;20070;-61
2023/12/06 11:56:26;;;;;;;42.28;38.22;;;14.30;36.70;;;;;;4983345;28;20552;-62
2023/12/06 11:58:52;;;;;;;45.33;41.13;;;14.20;1.00;;;;;;4985571;28;20059;-62
2023/12/06 12:01:22;;;;;;;45.45;41.03;;;14.60;1.00;;;;;;4984280;28;20140;-62
2023/12/06 12:03:49;;;;;;;44.53;40.22;;;14.60;1.00;;;;;;4983224;28;20570;-63
2023/12/06 12:06:16;;;;;;;44.47;40.08;;;14.50;1.00;;;;;;4982050;28;20043;-61
2023/12/06 12:08:43;;;;;;;39.28;35.78;;;14.30;99.90;;;;;;4983864;28;20034;-62
2023/12/06 12:11:10;;;;;;;40.10;36.35;;;14.00;99.90;;;;;;4989461;28;20038;-64
2023/12/06 12:13:42;;;;;;;40.38;36.88;;;14.60;99.90;;;;;;4991828;28;20092;-62
2023/12/06 12:16:08;;;;;;;39.17;35.58;;;14.30;99.90;;;;;;4989320;28;20061;-62
2023/12/06 12:18:34;;;;;;;41.60;37.70;;;15.10;99.90;;;;;;4989991;28;20509;-63
2023/12/06 12:21:06;;;;;;;42.55;38.85;;;14.20;99.90;;;;;;4991120;28;20046;-62
2023/12/06 12:23:32;;;;;;;42.05;38.35;;;14.80;99.90;;;;;;4988184;28;20054;-62
2023/12/06 12:25:57;;;;;;;41.25;37.30;;;14.50;99.90;;;;;;4989652;28;20447;-62